createdAt,value
2017-10-25T00:02:13.708Z,15.28
2017-10-25T00:04:42.790Z,15.32
2017-10-25T00:07:11.098Z,15.37
2017-10-25T00:09:39.410Z,15.43
2017-10-25T00:12:07.710Z,15.45
2017-10-25T00:14:36.022Z,15.48
2017-10-25T00:17:05.094Z,15.50
2017-10-25T00:19:33.407Z,15.45
2017-10-25T00:22:01.710Z,15.47
2017-10-25T00:24:30.036Z,15.49
2017-10-25T00:26:59.101Z,15.52
2017-10-25T00:29:27.422Z,15.57
2017-10-25T00:31:56.485Z,15.57
2017-10-25T00:34:24.793Z,15.60
2017-10-25T00:36:53.873Z,15.53
2017-10-25T00:39:22.949Z,15.49
2017-10-25T00:41:51.267Z,15.47
2017-10-25T00:44:20.339Z,15.37
2017-10-25T00:46:49.409Z,15.35
2017-10-25T00:49:17.718Z,15.32
2017-10-25T00:51:46.796Z,15.37
2017-10-25T00:54:15.112Z,15.32
2017-10-25T00:56:43.423Z,15.30
2017-10-25T00:59:11.754Z,15.32
2017-10-25T01:01:40.814Z,15.29
2017-10-25T01:04:09.135Z,15.34
2017-10-25T01:06:37.451Z,15.30
2017-10-25T01:09:05.773Z,15.31
2017-10-25T01:11:34.839Z,15.36
2017-10-25T01:14:03.162Z,15.30
2017-10-25T01:16:31.477Z,15.33
2017-10-25T01:18:59.790Z,15.31
2017-10-25T01:21:28.101Z,15.30
2017-10-25T01:23:56.425Z,15.31
2017-10-25T01:26:24.726Z,15.31
2017-10-25T01:28:53.812Z,15.31
2017-10-25T01:31:22.121Z,15.40
2017-10-25T01:33:50.429Z,15.46
2017-10-25T01:36:18.796Z,15.52
2017-10-25T01:38:47.101Z,15.54
2017-10-25T01:41:15.397Z,15.58
2017-10-25T01:43:43.706Z,15.56
2017-10-25T01:46:12.009Z,15.53
2017-10-25T01:48:41.150Z,15.48
2017-10-25T01:51:10.230Z,15.47
2017-10-25T01:53:38.561Z,15.52
2017-10-25T01:56:06.865Z,15.55
2017-10-25T01:58:35.206Z,15.56
2017-10-25T02:01:03.517Z,15.59
2017-10-25T02:03:31.827Z,15.65
2017-10-25T02:06:00.159Z,15.67
2017-10-25T02:08:28.480Z,15.72
2017-10-25T02:10:56.784Z,15.72
2017-10-25T02:13:25.851Z,15.71
2017-10-25T02:15:54.161Z,15.74
2017-10-25T02:18:23.279Z,15.73
2017-10-25T02:20:51.602Z,15.73
2017-10-25T02:23:19.925Z,15.73
2017-10-25T02:25:49.130Z,15.70
2017-10-25T02:28:17.432Z,15.74
2017-10-25T02:30:46.514Z,15.74
2017-10-25T02:33:14.807Z,15.74
2017-10-25T02:35:43.113Z,15.75
2017-10-25T02:38:11.410Z,15.77
2017-10-25T02:40:40.488Z,15.79
2017-10-25T02:43:09.556Z,15.82
2017-10-25T02:45:37.853Z,15.78
2017-10-25T02:48:06.149Z,15.79
2017-10-25T02:50:35.231Z,15.82
2017-10-25T02:53:04.313Z,15.81
2017-10-25T02:55:32.630Z,15.83
2017-10-25T02:58:01.701Z,15.80
2017-10-25T03:00:30.775Z,15.71
2017-10-25T03:02:59.072Z,15.80
2017-10-25T03:05:27.368Z,15.80
2017-10-25T03:07:56.440Z,15.81
2017-10-25T03:10:24.750Z,15.80
2017-10-25T03:12:53.068Z,15.88
2017-10-25T03:15:21.370Z,15.86
2017-10-25T03:17:49.681Z,15.84
2017-10-25T03:20:17.999Z,15.86
2017-10-25T03:22:46.309Z,15.88
2017-10-25T03:25:15.386Z,15.94
2017-10-25T03:27:43.690Z,15.90
2017-10-25T03:30:12.755Z,15.95
2017-10-25T03:32:41.070Z,15.92
2017-10-25T03:35:10.134Z,15.93
2017-10-25T03:37:38.446Z,15.96
2017-10-25T03:40:06.745Z,15.94
2017-10-25T03:42:35.064Z,15.95
2017-10-25T03:45:03.364Z,15.92
2017-10-25T03:47:32.449Z,15.95
2017-10-25T03:50:00.737Z,15.97
2017-10-25T03:52:29.810Z,15.95
2017-10-25T03:54:58.127Z,15.91
2017-10-25T03:57:26.446Z,15.94
2017-10-25T03:59:54.738Z,15.99
2017-10-25T04:02:23.075Z,16.03
2017-10-25T04:04:51.371Z,16.05
2017-10-25T04:07:19.690Z,16.07
2017-10-25T04:09:48.761Z,16.07
2017-10-25T04:12:17.060Z,16.11
2017-10-25T04:14:46.117Z,16.10
2017-10-25T04:17:14.431Z,16.13
2017-10-25T04:19:43.505Z,16.10
2017-10-25T04:22:11.834Z,16.06
2017-10-25T04:24:40.134Z,16.06
2017-10-25T04:27:08.438Z,16.04
2017-10-25T04:29:36.738Z,15.99
2017-10-25T04:32:05.813Z,16.03
2017-10-25T04:34:34.104Z,15.98
2017-10-25T04:37:02.426Z,15.98
2017-10-25T04:39:30.725Z,15.99
2017-10-25T04:41:59.029Z,16.07
2017-10-25T04:44:27.326Z,16.01
2017-10-25T04:46:56.406Z,16.00
2017-10-25T04:49:24.702Z,15.93
2017-10-25T04:51:53.022Z,15.92
2017-10-25T04:54:21.328Z,15.91
2017-10-25T04:56:49.660Z,15.96
2017-10-25T04:59:17.969Z,15.93
2017-10-25T05:01:46.299Z,15.94
2017-10-25T05:04:14.593Z,15.98
2017-10-25T05:06:42.897Z,15.97
2017-10-25T05:09:11.199Z,15.99
2017-10-25T05:11:39.507Z,16.01
2017-10-25T05:14:07.813Z,15.98
2017-10-25T05:16:36.150Z,15.98
2017-10-25T05:19:04.471Z,15.99
2017-10-25T05:21:32.784Z,15.98
2017-10-25T05:24:01.102Z,16.00
2017-10-25T05:26:29.421Z,16.02
2017-10-25T05:28:57.722Z,15.96
2017-10-25T05:31:26.809Z,15.93
2017-10-25T05:33:55.129Z,15.92
2017-10-25T05:36:23.437Z,15.90
2017-10-25T05:38:51.749Z,15.88
2017-10-25T05:41:20.048Z,15.84
2017-10-25T05:43:49.122Z,15.85
2017-10-25T05:46:17.421Z,15.87
2017-10-25T05:48:45.737Z,15.93
2017-10-25T05:51:14.030Z,15.99
2017-10-25T05:53:42.342Z,16.04
2017-10-25T05:56:11.406Z,16.04
2017-10-25T05:58:39.714Z,16.09
2017-10-25T06:01:08.778Z,16.10
2017-10-25T06:03:37.091Z,16.09
2017-10-25T06:06:05.381Z,16.08
2017-10-25T06:08:33.689Z,16.13
2017-10-25T06:11:01.990Z,16.11
2017-10-25T06:13:30.311Z,16.05
2017-10-25T06:15:58.605Z,16.02
2017-10-25T06:18:26.915Z,16.03
2017-10-25T06:20:55.213Z,16.12
2017-10-25T06:23:23.535Z,16.19
2017-10-25T06:25:51.834Z,16.28
2017-10-25T06:28:20.149Z,16.33
2017-10-25T06:30:49.208Z,16.24
2017-10-25T06:33:17.526Z,16.24
2017-10-25T06:35:46.593Z,16.25
2017-10-25T06:38:14.903Z,16.20
2017-10-25T06:40:43.961Z,16.25
2017-10-25T06:43:12.273Z,16.24
2017-10-25T06:45:41.332Z,16.18
2017-10-25T06:48:09.641Z,16.28
2017-10-25T06:50:38.702Z,16.25
2017-10-25T06:53:07.012Z,16.32
2017-10-25T06:55:36.072Z,16.36
2017-10-25T06:58:04.397Z,16.39
2017-10-25T07:00:32.718Z,16.54
2017-10-25T07:03:01.809Z,16.65
2017-10-25T07:05:30.108Z,16.72
2017-10-25T07:07:58.416Z,16.80
2017-10-25T07:10:27.478Z,16.94
2017-10-25T07:12:55.799Z,16.93
2017-10-25T07:15:24.088Z,17.08
2017-10-25T07:17:52.384Z,17.23
2017-10-25T07:20:20.673Z,17.25
2017-10-25T07:22:48.982Z,17.27
2017-10-25T07:25:17.273Z,17.33
2017-10-25T07:27:46.353Z,17.20
2017-10-25T07:30:14.649Z,17.14
2017-10-25T07:32:43.713Z,17.12
2017-10-25T07:35:12.002Z,17.22
2017-10-25T07:37:40.324Z,17.27
2017-10-25T07:40:08.626Z,17.06
2017-10-25T07:42:36.941Z,16.98
2017-10-25T07:45:06.026Z,16.86
2017-10-25T07:47:34.321Z,16.80
2017-10-25T07:50:03.386Z,16.84
2017-10-25T07:52:31.690Z,16.96
2017-10-25T07:55:00.822Z,17.03
2017-10-25T07:57:29.125Z,17.12
2017-10-25T07:59:57.457Z,17.03
2017-10-25T08:02:25.761Z,16.91
2017-10-25T08:04:54.070Z,16.93
2017-10-25T08:07:22.390Z,16.92
2017-10-25T08:09:50.688Z,17.09
2017-10-25T08:12:18.985Z,17.23
2017-10-25T08:14:47.296Z,17.30
2017-10-25T08:17:15.598Z,17.37
2017-10-25T08:19:43.896Z,17.44
2017-10-25T08:22:12.184Z,17.47
2017-10-25T08:24:40.485Z,17.57
2017-10-25T08:27:08.785Z,17.61
2017-10-25T08:29:37.888Z,17.63
2017-10-25T08:32:06.954Z,17.72
2017-10-25T08:34:35.249Z,17.79
2017-10-25T08:37:04.323Z,17.85
2017-10-25T08:39:32.636Z,17.97
2017-10-25T08:42:00.944Z,17.93
2017-10-25T08:44:29.245Z,17.93
2017-10-25T08:46:57.550Z,17.99
2017-10-25T08:49:26.624Z,18.46
2017-10-25T08:51:54.927Z,18.33
2017-10-25T08:54:23.998Z,18.61
2017-10-25T08:56:52.299Z,18.70
2017-10-25T08:59:21.369Z,18.65
2017-10-25T09:01:49.665Z,18.75
2017-10-25T09:04:18.747Z,18.53
2017-10-25T09:06:47.051Z,18.65
2017-10-25T09:09:16.130Z,19.34
2017-10-25T09:11:44.430Z,19.80
2017-10-25T09:14:12.729Z,19.35
2017-10-25T09:16:41.021Z,19.05
2017-10-25T09:19:09.338Z,19.26
2017-10-25T09:21:38.400Z,19.35
2017-10-25T09:24:06.709Z,19.46
2017-10-25T09:26:35.017Z,19.99
2017-10-25T09:29:03.326Z,19.54
2017-10-25T09:31:31.617Z,19.53
2017-10-25T09:33:59.936Z,19.13
2017-10-25T09:36:28.997Z,19.06
2017-10-25T09:38:57.306Z,18.87
2017-10-25T09:41:26.367Z,19.08
2017-10-25T09:43:54.702Z,19.77
2017-10-25T09:46:22.998Z,19.81
2017-10-25T09:48:51.297Z,20.30
2017-10-25T09:51:19.612Z,20.31
2017-10-25T09:53:47.924Z,20.36
2017-10-25T09:56:16.265Z,20.50
2017-10-25T09:58:44.572Z,20.04
2017-10-25T10:01:12.888Z,20.01
2017-10-25T10:03:41.194Z,19.93
2017-10-25T10:06:10.285Z,20.19
2017-10-25T10:08:38.605Z,20.19
2017-10-25T10:11:06.910Z,20.30
2017-10-25T10:13:35.237Z,20.53
2017-10-25T10:16:03.538Z,20.70
2017-10-25T10:18:31.846Z,20.41
2017-10-25T10:21:00.154Z,20.57
2017-10-25T10:23:29.225Z,20.20
2017-10-25T10:25:57.532Z,20.08
2017-10-25T10:28:26.593Z,20.08
2017-10-25T10:30:54.896Z,20.14
2017-10-25T10:33:23.956Z,20.29
2017-10-25T10:35:52.271Z,19.60
2017-10-25T10:38:21.336Z,19.49
2017-10-25T10:40:49.655Z,19.54
2017-10-25T10:43:17.950Z,19.45
2017-10-25T10:45:46.270Z,19.59
2017-10-25T10:48:14.564Z,19.47
2017-10-25T10:50:43.638Z,19.41
2017-10-25T10:53:11.938Z,19.44
2017-10-25T10:55:41.004Z,19.57
2017-10-25T10:58:09.338Z,19.48
2017-10-25T11:00:37.644Z,19.69
2017-10-25T11:03:05.942Z,19.96
2017-10-25T11:05:34.276Z,19.99
2017-10-25T11:08:02.581Z,20.12
2017-10-25T11:10:30.868Z,20.37
2017-10-25T11:12:59.990Z,20.63
2017-10-25T11:15:29.052Z,20.49
2017-10-25T11:17:57.351Z,20.43
2017-10-25T11:20:25.657Z,20.22
2017-10-25T11:22:53.963Z,20.18
2017-10-25T11:25:22.261Z,20.20
2017-10-25T11:27:50.561Z,20.04
2017-10-25T11:30:18.863Z,20.12
2017-10-25T11:32:47.962Z,20.21
2017-10-25T11:35:16.298Z,20.02
2017-10-25T11:37:44.608Z,20.41
2017-10-25T11:40:13.665Z,20.42
2017-10-25T11:42:41.973Z,20.48
2017-10-25T11:45:11.043Z,20.53
2017-10-25T11:47:39.341Z,20.21
2017-10-25T11:50:08.407Z,20.37
2017-10-25T11:52:36.718Z,20.06
2017-10-25T11:55:05.787Z,19.89
2017-10-25T11:57:34.107Z,20.09
2017-10-25T12:00:02.401Z,20.41
2017-10-25T12:02:30.706Z,19.97
2017-10-25T12:04:58.997Z,19.71
2017-10-25T12:07:27.312Z,19.71
2017-10-25T12:09:55.606Z,19.87
2017-10-25T12:12:23.928Z,19.87
2017-10-25T12:14:52.216Z,19.86
2017-10-25T12:17:20.516Z,19.58
2017-10-25T12:19:48.809Z,19.30
2017-10-25T12:22:17.115Z,19.33
2017-10-25T12:24:45.424Z,19.58
2017-10-25T12:27:13.743Z,19.97
2017-10-25T12:29:42.051Z,19.99
2017-10-25T12:32:10.361Z,19.92
2017-10-25T12:34:39.437Z,20.14
2017-10-25T12:37:07.742Z,20.61
2017-10-25T12:39:36.807Z,20.54
2017-10-25T12:42:05.128Z,20.42
2017-10-25T12:44:33.425Z,20.02
2017-10-25T12:47:01.728Z,19.65
2017-10-25T12:49:30.024Z,19.43
2017-10-25T12:51:58.313Z,19.48
2017-10-25T12:54:28.577Z,19.48
2017-10-25T12:56:56.876Z,19.56
2017-10-25T12:59:25.202Z,19.79
2017-10-25T13:01:54.266Z,20.07
2017-10-25T13:04:23.338Z,19.93
2017-10-25T13:06:51.641Z,19.98
2017-10-25T13:09:19.948Z,19.87
2017-10-25T13:11:49.493Z,19.79
2017-10-25T13:14:20.501Z,19.40
2017-10-25T13:16:52.465Z,19.14
2017-10-25T13:19:20.764Z,19.02
2017-10-25T13:21:49.079Z,18.96
2017-10-25T13:24:17.391Z,18.81
2017-10-25T13:26:46.509Z,18.78
2017-10-25T13:29:14.820Z,18.80
2017-10-25T13:31:43.887Z,18.79
2017-10-25T13:34:12.190Z,18.75
2017-10-25T13:36:40.485Z,18.61
2017-10-25T13:39:08.790Z,18.46
2017-10-25T13:41:37.859Z,18.38
2017-10-25T13:44:06.168Z,18.43
2017-10-25T13:46:34.480Z,18.52
2017-10-25T13:49:02.793Z,18.44
2017-10-25T13:51:31.091Z,18.52
2017-10-25T13:54:00.164Z,18.70
2017-10-25T13:56:28.465Z,18.78
2017-10-25T13:58:57.538Z,18.95
2017-10-25T14:01:25.856Z,18.84
2017-10-25T14:03:54.178Z,18.91
2017-10-25T14:06:22.477Z,18.69
2017-10-25T14:08:51.562Z,18.76
2017-10-25T14:11:20.647Z,18.68
2017-10-25T14:13:48.948Z,18.61
2017-10-25T14:16:18.013Z,18.47
2017-10-25T14:18:46.326Z,18.39
2017-10-25T14:21:15.381Z,18.45
2017-10-25T14:23:43.690Z,18.38
2017-10-25T14:26:12.762Z,18.37
2017-10-25T14:28:53.564Z,18.27
2017-10-25T14:31:21.862Z,18.21
2017-10-25T14:33:50.189Z,18.37
2017-10-25T14:36:18.502Z,18.17
2017-10-25T14:38:46.826Z,18.14
2017-10-25T14:41:15.154Z,18.20
2017-10-25T14:43:44.226Z,18.03
2017-10-25T14:46:12.522Z,17.85
2017-10-25T14:48:41.594Z,17.84
2017-10-25T14:51:09.910Z,17.80
2017-10-25T14:53:38.225Z,17.81
2017-10-25T14:56:06.527Z,17.86
2017-10-25T14:58:34.862Z,17.89
2017-10-25T15:01:03.174Z,17.79
2017-10-25T15:03:31.502Z,17.75
2017-10-25T15:05:59.797Z,17.74
2017-10-25T15:08:28.109Z,17.74
2017-10-25T15:10:56.398Z,17.61
2017-10-25T15:13:25.468Z,17.51
2017-10-25T15:15:53.776Z,17.43
2017-10-25T15:18:22.913Z,17.42
2017-10-25T15:20:51.242Z,17.32
2017-10-25T15:23:19.555Z,17.23
2017-10-25T15:25:47.875Z,17.23
2017-10-25T15:28:16.186Z,17.13
2017-10-25T15:30:45.251Z,17.06
2017-10-25T15:33:13.562Z,17.02
2017-10-25T15:35:42.631Z,16.91
2017-10-25T15:38:10.942Z,16.85
2017-10-25T15:40:39.249Z,16.83
2017-10-25T15:43:07.549Z,16.76
2017-10-25T15:45:35.839Z,16.74
2017-10-25T15:48:04.137Z,16.69
2017-10-25T15:50:33.211Z,16.69
2017-10-25T15:53:01.517Z,16.56
2017-10-25T15:55:30.580Z,16.57
2017-10-25T15:57:58.912Z,16.54
2017-10-25T16:00:27.210Z,16.48
2017-10-25T16:02:55.502Z,16.37
2017-10-25T16:05:23.818Z,16.25
2017-10-25T16:07:52.879Z,16.32
2017-10-25T16:10:21.202Z,16.25
2017-10-25T16:12:49.499Z,16.27
2017-10-25T16:15:17.803Z,16.17
2017-10-25T16:17:46.100Z,16.23
2017-10-25T16:20:14.418Z,16.18
2017-10-25T16:22:42.718Z,16.16
2017-10-25T16:25:11.017Z,16.10
2017-10-25T16:27:39.313Z,16.03
2017-10-25T16:30:07.616Z,15.97
2017-10-25T16:32:35.916Z,15.90
2017-10-25T16:35:04.226Z,15.92
2017-10-25T16:37:32.533Z,15.99
2017-10-25T16:40:01.601Z,15.99
2017-10-25T16:42:29.913Z,15.93
2017-10-25T16:44:58.986Z,15.99
2017-10-25T16:47:27.287Z,15.93
2017-10-25T16:49:56.356Z,15.86
2017-10-25T16:52:24.650Z,15.86
2017-10-25T16:54:53.712Z,15.83
2017-10-25T16:57:22.005Z,15.79
2017-10-25T16:59:50.309Z,15.82
2017-10-25T17:02:18.596Z,15.80
2017-10-25T17:04:47.516Z,15.85
2017-10-25T17:07:15.813Z,15.87
2017-10-25T17:09:44.122Z,15.83
2017-10-25T17:12:12.428Z,15.77
2017-10-25T17:14:40.747Z,15.76
2017-10-25T17:17:09.082Z,15.65
2017-10-25T17:19:37.405Z,15.65
2017-10-25T17:22:05.726Z,15.55
2017-10-25T17:24:34.040Z,15.52
2017-10-25T17:27:02.341Z,15.47
2017-10-25T17:29:30.667Z,15.40
2017-10-25T17:31:58.982Z,15.34
2017-10-25T17:34:27.304Z,15.31
2017-10-25T17:36:55.613Z,15.20
2017-10-25T17:39:23.942Z,15.11
2017-10-25T17:41:53.013Z,15.05
2017-10-25T17:44:21.325Z,15.00
2017-10-25T17:46:50.380Z,14.86
2017-10-25T17:49:18.684Z,14.85
2017-10-25T17:51:47.758Z,14.83
2017-10-25T17:54:16.074Z,14.85
2017-10-25T17:56:45.149Z,14.82
2017-10-25T17:59:14.236Z,14.85
2017-10-25T18:01:42.552Z,14.86
2017-10-25T18:04:10.860Z,14.90
2017-10-25T18:06:39.162Z,14.96
2017-10-25T18:09:07.484Z,14.99
2017-10-25T18:11:35.790Z,14.96
2017-10-25T18:14:04.106Z,14.89
2017-10-25T18:16:32.415Z,14.78
2017-10-25T18:19:00.716Z,14.72
2017-10-25T18:21:29.034Z,14.65
2017-10-25T18:23:57.344Z,14.63
2017-10-25T18:26:25.661Z,14.54
2017-10-25T18:28:53.968Z,14.52
2017-10-25T18:31:22.286Z,14.53
2017-10-25T18:33:50.604Z,14.45
2017-10-25T18:36:18.935Z,14.36
2017-10-25T18:38:47.239Z,14.36
2017-10-25T18:41:15.564Z,14.24
2017-10-25T18:43:44.640Z,14.15
2017-10-25T18:46:13.482Z,14.09
2017-10-25T18:48:41.793Z,14.08
2017-10-25T18:51:10.140Z,14.22
2017-10-25T18:53:38.440Z,14.36
2017-10-25T18:56:06.764Z,14.42
2017-10-25T18:58:35.833Z,14.47
2017-10-25T19:01:04.143Z,14.55
2017-10-25T19:03:33.215Z,14.63
2017-10-25T19:06:01.549Z,14.68
2017-10-25T19:08:29.862Z,14.65
2017-10-25T19:10:58.171Z,14.70
2017-10-25T19:13:27.249Z,14.72
2017-10-25T19:15:56.330Z,14.74
2017-10-25T19:18:24.637Z,14.79
2017-10-25T19:20:53.734Z,14.86
2017-10-25T19:23:22.798Z,14.85
2017-10-25T19:25:51.122Z,14.85
2017-10-25T19:28:19.421Z,14.81
2017-10-25T19:30:47.735Z,14.69
2017-10-25T19:33:16.059Z,14.53
2017-10-25T19:35:44.378Z,14.40
2017-10-25T19:38:12.681Z,14.33
2017-10-25T19:40:41.786Z,14.27
2017-10-25T19:43:10.848Z,14.28
2017-10-25T19:45:39.157Z,14.21
2017-10-25T19:48:13.204Z,14.16
2017-10-25T19:50:41.509Z,14.16
2017-10-25T19:53:09.825Z,14.12
2017-10-25T19:55:38.895Z,13.97
2017-10-25T19:58:07.210Z,13.92
2017-10-25T20:00:35.536Z,13.81
2017-10-25T20:03:03.851Z,13.76
2017-10-25T20:05:32.175Z,13.70
2017-10-25T20:08:00.499Z,13.69
2017-10-25T20:10:29.577Z,13.68
2017-10-25T20:12:57.897Z,13.65
2017-10-25T20:15:26.197Z,13.67
2017-10-25T20:17:54.514Z,13.62
2017-10-25T20:20:22.836Z,13.58
2017-10-25T20:22:51.145Z,13.56
2017-10-25T20:25:19.453Z,13.56
2017-10-25T20:27:48.538Z,13.52
2017-10-25T20:30:16.855Z,13.47
2017-10-25T20:32:45.184Z,13.47
2017-10-25T20:35:13.490Z,13.43
2017-10-25T20:37:42.581Z,13.35
2017-10-25T20:40:10.897Z,13.27
2017-10-25T20:42:39.215Z,13.25
2017-10-25T20:45:07.527Z,13.22
2017-10-25T20:47:35.842Z,13.23
2017-10-25T20:50:04.159Z,13.24
2017-10-25T20:52:33.265Z,13.16
2017-10-25T20:55:02.900Z,13.14
2017-10-25T20:57:31.248Z,13.17
2017-10-25T21:00:00.340Z,13.10
2017-10-25T21:02:29.471Z,13.06
2017-10-25T21:04:57.786Z,13.02
2017-10-25T21:07:26.121Z,12.91
2017-10-25T21:09:54.436Z,12.89
2017-10-25T21:12:22.754Z,12.90
2017-10-25T21:14:51.837Z,12.85
2017-10-25T21:17:20.916Z,12.86
2017-10-25T21:19:49.231Z,12.84
2017-10-25T21:22:17.569Z,12.79
2017-10-25T21:24:45.867Z,12.80
2017-10-25T21:27:14.958Z,12.85
2017-10-25T21:29:43.279Z,12.77
2017-10-25T21:32:11.584Z,12.73
2017-10-25T21:34:39.893Z,12.68
2017-10-25T21:37:08.969Z,12.65
2017-10-25T21:39:37.277Z,12.60
2017-10-25T21:42:06.363Z,12.63
2017-10-25T21:44:35.448Z,12.56
2017-10-25T21:47:03.754Z,12.51
2017-10-25T21:49:32.105Z,12.46
2017-10-25T21:52:00.411Z,12.43
2017-10-25T21:54:28.726Z,12.38
2017-10-25T21:56:57.034Z,12.37
2017-10-25T21:59:25.354Z,12.32
2017-10-25T22:01:53.674Z,12.29
2017-10-25T22:04:22.013Z,12.25
2017-10-25T22:06:50.341Z,12.24
2017-10-25T22:09:18.656Z,12.18
2017-10-25T22:11:46.963Z,12.14
2017-10-25T22:14:15.277Z,12.08
2017-10-25T22:16:43.590Z,12.03
2017-10-25T22:19:11.907Z,11.97
2017-10-25T22:21:40.217Z,11.91
2017-10-25T22:24:09.298Z,11.85
2017-10-25T22:26:37.625Z,11.84
2017-10-25T22:29:05.935Z,11.86
2017-10-25T22:31:34.248Z,11.89
2017-10-25T22:34:03.334Z,11.98
2017-10-25T22:36:31.644Z,12.03
2017-10-25T22:38:59.960Z,12.02
2017-10-25T22:41:28.274Z,11.98
2017-10-25T22:43:57.349Z,12.00
2017-10-25T22:46:25.662Z,11.95
2017-10-25T22:48:53.975Z,11.99
2017-10-25T22:51:22.280Z,12.00
2017-10-25T22:53:50.590Z,12.06
2017-10-25T22:56:19.693Z,12.01
2017-10-25T22:58:48.017Z,11.98
2017-10-25T23:01:16.323Z,11.94
2017-10-25T23:03:45.415Z,11.92
2017-10-25T23:06:13.719Z,11.89
2017-10-25T23:08:42.043Z,11.88
2017-10-25T23:11:10.353Z,11.83
2017-10-25T23:13:38.697Z,11.82
2017-10-25T23:16:07.010Z,11.78
2017-10-25T23:18:36.089Z,11.75
2017-10-25T23:21:04.395Z,11.76
2017-10-25T23:23:33.477Z,11.73
2017-10-25T23:26:02.539Z,11.72
2017-10-25T23:28:30.849Z,11.80
2017-10-25T23:30:59.926Z,11.88
2017-10-25T23:33:28.232Z,11.90
2017-10-25T23:35:57.315Z,11.87
2017-10-25T23:38:26.394Z,11.77
2017-10-25T23:40:54.701Z,11.74
2017-10-25T23:43:23.787Z,11.70
2017-10-25T23:45:52.852Z,11.77
2017-10-25T23:48:21.170Z,11.75
2017-10-25T23:50:49.474Z,11.73
2017-10-25T23:53:17.780Z,11.75
2017-10-25T23:55:46.086Z,11.75
2017-10-25T23:58:15.183Z,11.74
